createdAt,value
2022-08-07T00:01:44.565Z,4.70
2022-08-07T00:04:03.499Z,2.38
2022-08-07T00:06:33.521Z,4.18
2022-08-07T00:09:17.026Z,3.50
2022-08-07T00:11:55.585Z,2.85
2022-08-07T00:14:30.339Z,2.93
2022-08-07T00:17:01.962Z,3.58
2022-08-07T00:20:00.240Z,2.88
2022-08-07T00:22:24.559Z,2.60
2022-08-07T00:25:01.858Z,3.05
2022-08-07T00:27:29.448Z,2.50
2022-08-07T00:30:21.678Z,4.47
2022-08-07T00:32:56.651Z,2.28
2022-08-07T00:35:23.554Z,2.42
2022-08-07T00:37:50.889Z,2.20
2022-08-07T00:40:39.029Z,2.37
2022-08-07T00:43:04.388Z,1.95
2022-08-07T00:45:36.603Z,3.35
2022-08-07T00:48:18.221Z,3.10
2022-08-07T00:50:50.503Z,2.17
2022-08-07T00:53:18.238Z,1.97
2022-08-07T00:56:03.180Z,2.63
2022-08-07T00:58:32.442Z,2.65
2022-08-07T01:00:59.451Z,2.00
2022-08-07T01:03:56.734Z,3.20
2022-08-07T01:06:13.510Z,3.43
2022-08-07T01:08:51.394Z,2.70
2022-08-07T01:12:04.688Z,1.80
2022-08-07T01:14:09.028Z,2.28
2022-08-07T01:16:36.794Z,2.63
2022-08-07T01:19:18.062Z,2.83
2022-08-07T01:21:46.942Z,2.70
2022-08-07T01:24:14.321Z,2.60
2022-08-07T01:26:51.528Z,3.33
2022-08-07T01:29:19.193Z,2.03
2022-08-07T01:31:48.275Z,2.17
2022-08-07T01:34:17.727Z,2.67
2022-08-07T01:36:52.543Z,2.58
2022-08-07T01:39:40.702Z,2.20
2022-08-07T01:42:39.491Z,1.55
2022-08-07T01:45:09.853Z,3.37
2022-08-07T01:48:19.231Z,1.67
2022-08-07T01:50:30.396Z,1.75
2022-08-07T01:52:59.982Z,3.53
2022-08-07T01:55:36.457Z,2.33
2022-08-07T01:58:29.597Z,3.27
2022-08-07T02:01:10.046Z,5.28
2022-08-07T02:03:55.904Z,3.42
2022-08-07T02:06:31.229Z,2.05
2022-08-07T02:09:03.819Z,3.83
2022-08-07T02:12:02.607Z,2.80
2022-08-07T02:14:36.014Z,2.20
2022-08-07T02:17:07.319Z,2.50
2022-08-07T02:20:07.444Z,3.47
2022-08-07T02:22:25.912Z,2.65
2022-08-07T02:24:54.615Z,1.97
2022-08-07T02:27:23.931Z,2.22
2022-08-07T02:29:54.172Z,2.88
2022-08-07T02:32:23.247Z,3.60
2022-08-07T02:34:51.798Z,2.22
2022-08-07T02:37:20.445Z,1.93
2022-08-07T02:40:02.036Z,3.35
2022-08-07T02:42:36.597Z,2.22
2022-08-07T02:45:07.594Z,3.50
2022-08-07T02:47:53.120Z,2.53
2022-08-07T02:50:20.772Z,2.77
2022-08-07T02:53:13.862Z,2.22
2022-08-07T02:56:03.198Z,3.45
2022-08-07T02:58:33.794Z,2.97
2022-08-07T03:01:03.142Z,1.67
2022-08-07T03:03:50.209Z,2.20
2022-08-07T03:06:32.075Z,2.15
2022-08-07T03:09:01.669Z,2.45
2022-08-07T03:11:29.503Z,2.88
2022-08-07T03:14:01.746Z,3.85
2022-08-07T03:16:30.422Z,3.00
2022-08-07T03:19:00.854Z,2.10
2022-08-07T03:21:28.148Z,2.45
2022-08-07T03:24:19.927Z,3.75
2022-08-07T03:26:51.192Z,3.20
2022-08-07T03:29:30.954Z,2.50
2022-08-07T03:32:03.189Z,4.10
2022-08-07T03:34:31.965Z,2.28
2022-08-07T03:37:12.100Z,4.25
2022-08-07T03:39:45.930Z,3.10
2022-08-07T03:42:23.318Z,1.73
2022-08-07T03:44:53.459Z,3.50
2022-08-07T03:47:24.476Z,3.40
2022-08-07T03:49:52.435Z,3.38
2022-08-07T03:52:26.835Z,2.53
2022-08-07T03:54:57.179Z,3.00
2022-08-07T03:59:07.309Z,2.72
2022-08-07T04:00:14.815Z,2.83
2022-08-07T04:02:43.086Z,3.58
2022-08-07T04:05:14.044Z,4.50
2022-08-07T04:07:47.784Z,3.53
2022-08-07T04:10:15.517Z,3.17
2022-08-07T04:12:47.208Z,2.60
2022-08-07T04:15:15.856Z,4.93
2022-08-07T04:18:56.215Z,2.63
2022-08-07T04:20:31.044Z,3.17
2022-08-07T04:23:01.185Z,2.95
2022-08-07T04:25:30.241Z,3.35
2022-08-07T04:28:02.629Z,3.80
2022-08-07T04:30:39.286Z,3.25
2022-08-07T04:33:13.852Z,4.10
2022-08-07T04:35:51.055Z,2.35
2022-08-07T04:38:17.931Z,3.13
2022-08-07T04:40:52.970Z,2.60
2022-08-07T04:44:11.933Z,4.80
2022-08-07T04:47:08.379Z,5.50
2022-08-07T04:49:57.476Z,4.80
2022-08-07T04:52:51.100Z,4.72
2022-08-07T04:58:23.669Z,4.15
2022-08-07T04:59:17.434Z,3.08
2022-08-07T05:01:59.525Z,2.83
2022-08-07T05:04:50.462Z,3.85
2022-08-07T05:07:23.288Z,2.97
2022-08-07T05:10:11.764Z,4.50
2022-08-07T05:12:51.510Z,4.47
2022-08-07T05:15:26.228Z,3.47
2022-08-07T05:18:08.706Z,5.32
2022-08-07T05:20:44.952Z,4.22
2022-08-07T05:23:19.658Z,3.15
2022-08-07T05:26:15.639Z,5.45
2022-08-07T05:28:40.524Z,3.87
2022-08-07T05:31:10.969Z,6.47
2022-08-07T05:33:42.908Z,5.03
2022-08-07T05:36:30.476Z,5.72
2022-08-07T05:40:05.025Z,4.53
2022-08-07T05:42:01.159Z,4.87
2022-08-07T05:44:35.275Z,4.00
2022-08-07T05:47:17.856Z,5.75
2022-08-07T05:49:48.615Z,4.85
2022-08-07T05:52:17.674Z,7.68
2022-08-07T05:54:55.986Z,5.20
2022-08-07T05:57:30.497Z,10.15
2022-08-07T06:00:01.705Z,5.75
2022-08-07T06:02:31.655Z,4.57
2022-08-07T06:05:03.628Z,6.35
2022-08-07T06:08:14.818Z,5.57
2022-08-07T06:10:18.080Z,6.18
2022-08-07T06:12:45.473Z,5.30
2022-08-07T06:15:16.086Z,6.32
2022-08-07T06:17:53.552Z,4.63
2022-08-07T06:20:25.475Z,4.87
2022-08-07T06:23:24.688Z,5.03
2022-08-07T06:25:54.834Z,5.57
2022-08-07T06:28:27.407Z,4.80
2022-08-07T06:30:55.370Z,5.70
2022-08-07T06:33:22.691Z,6.60
2022-08-07T06:36:06.611Z,6.35
2022-08-07T06:38:35.906Z,5.15
2022-08-07T06:41:06.807Z,6.35
2022-08-07T06:43:39.455Z,7.13
2022-08-07T06:46:12.389Z,5.80
2022-08-07T06:48:41.848Z,8.52
2022-08-07T06:51:13.013Z,7.38
2022-08-07T06:54:12.064Z,7.35
2022-08-07T06:56:48.594Z,7.60
2022-08-07T07:00:13.059Z,4.87
2022-08-07T07:02:48.758Z,7.22
2022-08-07T07:05:02.777Z,6.22
2022-08-07T07:07:59.858Z,6.13
2022-08-07T07:10:27.088Z,5.55
2022-08-07T07:12:58.600Z,5.83
2022-08-07T07:15:32.550Z,6.65
2022-08-07T07:18:11.851Z,5.47
2022-08-07T07:20:44.914Z,5.38
2022-08-07T07:24:06.490Z,5.53
2022-08-07T07:26:33.482Z,4.13
2022-08-07T07:29:57.248Z,8.35
2022-08-07T07:31:47.779Z,4.90
2022-08-07T07:34:18.049Z,5.03
2022-08-07T07:36:47.789Z,4.28
2022-08-07T07:39:21.023Z,3.57
2022-08-07T07:42:13.099Z,4.68
2022-08-07T07:44:41.809Z,4.13
2022-08-07T07:47:13.988Z,4.07
2022-08-07T07:50:32.736Z,2.20
2022-08-07T07:52:35.687Z,4.33
2022-08-07T07:55:04.131Z,3.10
2022-08-07T07:57:50.410Z,4.88
2022-08-07T08:00:28.931Z,4.18
2022-08-07T08:03:07.979Z,3.80
2022-08-07T08:05:42.715Z,2.90
2022-08-07T08:08:34.983Z,4.15
2022-08-07T08:11:09.309Z,2.25
2022-08-07T08:13:54.189Z,4.15
2022-08-07T08:18:36.530Z,3.60
2022-08-07T08:20:15.955Z,4.47
2022-08-07T08:22:32.630Z,3.17
2022-08-07T08:25:27.117Z,3.13
2022-08-07T08:28:12.812Z,2.50
2022-08-07T08:30:51.353Z,2.92
2022-08-07T08:33:24.703Z,4.17
2022-08-07T08:35:57.121Z,2.13
2022-08-07T08:38:30.064Z,3.13
2022-08-07T08:41:13.231Z,4.35
2022-08-07T08:43:59.205Z,4.18
2022-08-07T08:46:48.998Z,3.33
2022-08-07T08:49:57.169Z,6.35
2022-08-07T08:52:36.227Z,2.85
2022-08-07T08:55:21.164Z,3.03
2022-08-07T08:58:20.360Z,3.03
2022-08-07T09:01:15.763Z,3.70
2022-08-07T09:03:52.929Z,3.70
2022-08-07T09:06:29.221Z,3.63
2022-08-07T09:09:21.042Z,2.95
2022-08-07T09:12:20.208Z,2.30
2022-08-07T09:16:23.338Z,3.07
2022-08-07T09:18:27.947Z,3.33
2022-08-07T09:21:58.159Z,2.38
2022-08-07T09:24:30.561Z,2.67
2022-08-07T09:27:29.272Z,3.00
2022-08-07T09:30:08.736Z,3.20
2022-08-07T09:32:56.850Z,2.55
2022-08-07T09:36:03.506Z,2.35
2022-08-07T09:38:58.960Z,2.33
2022-08-07T09:42:05.822Z,1.95
2022-08-07T09:47:24.395Z,4.73
2022-08-07T09:48:02.897Z,2.40
2022-08-07T09:51:03.032Z,2.50
2022-08-07T09:53:41.373Z,3.65
2022-08-07T09:56:37.262Z,3.63
2022-08-07T09:59:35.773Z,2.73
2022-08-07T10:02:34.616Z,2.60
2022-08-07T10:06:00.030Z,3.45
2022-08-07T10:08:49.598Z,2.08
2022-08-07T10:12:02.067Z,2.10
2022-08-07T10:14:39.009Z,4.10
2022-08-07T10:17:23.533Z,2.33
2022-08-07T10:20:27.726Z,2.67
2022-08-07T10:24:06.480Z,2.55
2022-08-07T10:26:29.848Z,2.08
2022-08-07T10:29:30.421Z,2.67
2022-08-07T10:32:37.049Z,1.60
2022-08-07T10:35:53.493Z,3.13
2022-08-07T10:38:48.636Z,2.17
2022-08-07T10:41:51.399Z,1.23
2022-08-07T10:44:45.165Z,3.90
2022-08-07T10:47:17.910Z,1.98
2022-08-07T10:49:54.291Z,1.63
2022-08-07T10:52:33.622Z,1.50
2022-08-07T10:55:27.116Z,3.35
2022-08-07T10:58:33.404Z,3.17
2022-08-07T11:01:35.178Z,2.65
2022-08-07T11:04:34.657Z,2.40
2022-08-07T11:07:56.092Z,2.15
2022-08-07T11:10:19.942Z,2.35
2022-08-07T11:14:42.127Z,2.10
2022-08-07T11:16:51.310Z,1.75
2022-08-07T11:19:52.864Z,2.08
2022-08-07T11:22:37.239Z,1.98
2022-08-07T11:25:27.772Z,1.88
2022-08-07T11:28:06.254Z,2.27
2022-08-07T11:30:51.263Z,2.63
2022-08-07T11:33:58.356Z,1.63
2022-08-07T11:36:39.272Z,2.10
2022-08-07T11:40:00.771Z,2.40
2022-08-07T11:42:59.117Z,1.83
2022-08-07T11:45:35.365Z,2.35
2022-08-07T11:48:29.452Z,2.13
2022-08-07T11:51:02.722Z,2.63
2022-08-07T11:54:00.716Z,2.30
2022-08-07T11:56:43.733Z,2.40
2022-08-07T12:00:11.261Z,3.25
2022-08-07T12:02:52.177Z,3.17
2022-08-07T12:05:47.367Z,2.53
2022-08-07T12:08:31.709Z,1.95
2022-08-07T12:11:20.821Z,1.87
2022-08-07T12:13:48.740Z,1.85
2022-08-07T12:16:30.737Z,2.20
2022-08-07T12:19:21.508Z,2.85
2022-08-07T12:22:39.327Z,2.38
2022-08-07T12:26:03.422Z,3.40
2022-08-07T12:28:30.868Z,2.20
2022-08-07T12:31:03.689Z,2.05
2022-08-07T12:34:00.749Z,1.45
2022-08-07T12:36:32.979Z,2.70
2022-08-07T12:39:03.362Z,1.80
2022-08-07T12:41:52.285Z,2.00
2022-08-07T12:44:21.589Z,2.67
2022-08-07T12:47:10.198Z,1.98
2022-08-07T12:50:04.976Z,2.63
2022-08-07T12:53:17.842Z,1.40
2022-08-07T12:56:12.396Z,1.52
2022-08-07T12:58:42.940Z,2.58
2022-08-07T13:01:32.895Z,1.88
2022-08-07T13:04:34.242Z,2.85
2022-08-07T13:08:12.884Z,3.00
2022-08-07T13:10:39.212Z,2.22
2022-08-07T13:13:08.654Z,2.70
2022-08-07T13:15:46.319Z,2.25
2022-08-07T13:18:26.210Z,2.45
2022-08-07T13:21:02.746Z,2.40
2022-08-07T13:24:01.086Z,1.70
2022-08-07T13:26:46.371Z,2.85
2022-08-07T13:29:51.287Z,1.55
2022-08-07T13:32:37.599Z,1.92
2022-08-07T13:35:15.834Z,2.23
2022-08-07T13:38:25.117Z,1.73
2022-08-07T13:41:17.993Z,1.83
2022-08-07T13:43:52.743Z,2.47
2022-08-07T13:46:32.767Z,2.38
2022-08-07T13:49:03.589Z,4.07
2022-08-07T13:52:05.068Z,1.90
2022-08-07T13:54:27.496Z,2.17
2022-08-07T13:56:59.717Z,3.13
2022-08-07T13:59:31.413Z,2.75
2022-08-07T14:02:10.141Z,2.73
2022-08-07T14:05:04.742Z,2.30
2022-08-07T14:08:00.575Z,2.13
2022-08-07T14:10:42.164Z,2.63
2022-08-07T14:13:14.032Z,2.25
2022-08-07T14:15:51.798Z,2.47
2022-08-07T14:18:49.815Z,2.53
2022-08-07T14:22:03.883Z,3.33
2022-08-07T14:24:33.299Z,2.47
2022-08-07T14:28:11.657Z,1.42
2022-08-07T14:30:07.139Z,2.83
2022-08-07T14:32:46.005Z,1.70
2022-08-07T14:38:09.520Z,1.33
2022-08-07T14:40:58.907Z,2.42
2022-08-07T14:43:59.066Z,1.40
2022-08-07T14:46:18.629Z,1.80
2022-08-07T14:48:58.561Z,2.95
2022-08-07T14:51:28.032Z,1.52
2022-08-07T14:54:32.884Z,1.88
2022-08-07T14:57:05.558Z,1.73
2022-08-07T15:00:05.297Z,3.53
2022-08-07T15:02:33.161Z,1.60
2022-08-07T15:05:02.319Z,1.98
2022-08-07T15:07:50.853Z,3.30
2022-08-07T15:10:26.520Z,3.00
2022-08-07T15:13:17.996Z,2.30
2022-08-07T15:18:45.859Z,3.00
2022-08-07T15:21:58.575Z,1.55
2022-08-07T15:25:16.169Z,1.87
2022-08-07T15:27:12.068Z,2.13
2022-08-07T15:30:10.334Z,2.80
2022-08-07T15:38:29.515Z,1.57
2022-08-07T15:41:24.033Z,1.77
2022-08-07T15:44:02.786Z,4.88
2022-08-07T15:46:32.252Z,2.47
2022-08-07T15:49:14.211Z,3.75
2022-08-07T15:54:34.556Z,2.60
2022-08-07T15:57:28.030Z,2.38
2022-08-07T15:59:59.427Z,2.38
2022-08-07T16:02:35.662Z,3.25
2022-08-07T16:05:15.191Z,3.00
2022-08-07T16:08:30.621Z,2.88
2022-08-07T16:11:04.502Z,2.92
2022-08-07T16:14:09.130Z,3.47
2022-08-07T16:16:56.868Z,4.90
2022-08-07T16:19:59.681Z,2.77
2022-08-07T16:22:34.030Z,2.35
2022-08-07T16:25:10.025Z,2.13
2022-08-07T16:30:06.516Z,2.20
2022-08-07T16:31:51.394Z,2.95
2022-08-07T16:34:50.323Z,2.07
2022-08-07T16:38:03.357Z,3.88
2022-08-07T16:40:56.944Z,2.40
2022-08-07T16:44:06.280Z,3.20
2022-08-07T16:47:05.797Z,3.67
2022-08-07T16:50:20.313Z,2.77
2022-08-07T16:53:20.703Z,2.65
2022-08-07T16:56:00.133Z,2.35
2022-08-07T16:59:10.101Z,2.50
2022-08-07T17:01:53.833Z,3.15
2022-08-07T17:05:00.646Z,3.80
2022-08-07T17:07:55.710Z,3.25
2022-08-07T17:10:39.540Z,2.65
2022-08-07T17:13:41.379Z,2.58
2022-08-07T17:17:06.961Z,3.25
2022-08-07T17:20:02.544Z,2.83
2022-08-07T17:22:43.663Z,3.13
2022-08-07T17:25:15.888Z,3.22
2022-08-07T17:28:06.765Z,2.67
2022-08-07T17:30:57.974Z,2.53
2022-08-07T17:34:08.645Z,3.13
2022-08-07T17:36:26.663Z,3.65
2022-08-07T17:39:15.503Z,4.40
2022-08-07T17:42:06.819Z,3.28
2022-08-07T17:44:51.530Z,4.25
2022-08-07T17:47:42.842Z,2.57
2022-08-07T17:50:20.432Z,2.85
2022-08-07T17:52:58.969Z,3.60
2022-08-07T17:55:55.620Z,3.15
2022-08-07T17:58:46.217Z,3.70
2022-08-07T18:01:22.629Z,3.53
2022-08-07T18:04:24.570Z,3.25
2022-08-07T18:07:24.401Z,4.78
2022-08-07T18:10:05.882Z,3.50
2022-08-07T18:13:06.905Z,4.85
2022-08-07T18:15:39.474Z,3.13
2022-08-07T18:18:46.806Z,3.55
2022-08-07T18:21:40.268Z,3.85
2022-08-07T18:24:10.424Z,3.22
2022-08-07T18:27:06.449Z,3.63
2022-08-07T18:30:06.319Z,3.00
2022-08-07T18:32:52.128Z,3.38
2022-08-07T18:35:30.496Z,4.20
2022-08-07T18:38:56.382Z,5.00
2022-08-07T18:44:08.861Z,6.00
2022-08-07T18:46:59.614Z,4.53
2022-08-07T18:50:30.026Z,3.13
2022-08-07T18:52:38.825Z,2.38
2022-08-07T18:55:42.486Z,3.63
2022-08-07T18:58:38.808Z,3.75
2022-08-07T19:02:17.477Z,4.27
2022-08-07T19:04:56.113Z,3.05
2022-08-07T19:07:51.648Z,3.58
2022-08-07T19:10:29.089Z,3.42
2022-08-07T19:13:11.521Z,3.83
2022-08-07T19:16:03.178Z,2.70
2022-08-07T19:18:44.621Z,3.75
2022-08-07T19:21:44.157Z,2.83
2022-08-07T19:24:30.906Z,3.97
2022-08-07T19:28:56.655Z,2.78
2022-08-07T19:31:05.119Z,3.33
2022-08-07T19:32:47.281Z,4.07
2022-08-07T19:35:25.664Z,4.43
2022-08-07T19:38:00.081Z,4.35
2022-08-07T19:40:34.846Z,6.30
2022-08-07T19:43:08.655Z,3.90
2022-08-07T19:46:04.664Z,3.47
2022-08-07T19:48:55.886Z,3.92
2022-08-07T19:51:52.953Z,3.03
2022-08-07T19:54:31.282Z,3.25
2022-08-07T19:58:03.351Z,4.07
2022-08-07T19:59:59.471Z,3.60
2022-08-07T20:02:34.955Z,2.38
2022-08-07T20:05:08.678Z,4.03
2022-08-07T20:07:46.418Z,4.22
2022-08-07T20:10:35.846Z,4.37
2022-08-07T20:13:22.861Z,3.72
2022-08-07T20:15:52.209Z,4.93
2022-08-07T20:18:21.958Z,6.85
2022-08-07T20:21:03.163Z,5.00
2022-08-07T20:23:43.054Z,3.00
2022-08-07T20:26:15.351Z,4.78
2022-08-07T20:28:59.156Z,4.30
2022-08-07T20:31:27.929Z,5.70
2022-08-07T20:33:57.568Z,8.00
2022-08-07T20:36:27.230Z,4.87
2022-08-07T20:39:00.703Z,6.45
2022-08-07T20:41:38.054Z,4.72
2022-08-07T20:44:12.707Z,4.90
2022-08-07T20:46:44.622Z,5.55
2022-08-07T20:49:59.099Z,5.47
2022-08-07T20:52:06.592Z,5.55
2022-08-07T20:54:45.568Z,6.47
2022-08-07T20:57:28.130Z,7.60
2022-08-07T21:00:06.431Z,4.78
2022-08-07T21:03:01.613Z,5.17
2022-08-07T21:05:50.584Z,3.80
2022-08-07T21:08:36.573Z,5.32
2022-08-07T21:11:29.029Z,6.60
2022-08-07T21:14:31.714Z,4.15
2022-08-07T21:18:00.336Z,4.37
2022-08-07T21:20:05.186Z,4.57
2022-08-07T21:22:38.572Z,4.90
2022-08-07T21:25:25.579Z,6.78
2022-08-07T21:28:07.729Z,5.72
2022-08-07T21:30:49.314Z,6.13
2022-08-07T21:33:16.192Z,5.78
2022-08-07T21:36:03.900Z,4.82
2022-08-07T21:38:54.877Z,5.63
2022-08-07T21:41:52.278Z,6.03
2022-08-07T21:44:51.164Z,9.17
2022-08-07T21:47:35.949Z,7.55
2022-08-07T21:50:19.655Z,6.80
2022-08-07T21:53:05.166Z,5.40
2022-08-07T21:56:32.801Z,5.30
2022-08-07T21:59:05.158Z,5.80
2022-08-07T22:02:11.411Z,3.97
2022-08-07T22:04:37.088Z,4.10
2022-08-07T22:07:21.241Z,5.70
2022-08-07T22:09:55.264Z,8.98
2022-08-07T22:12:27.215Z,6.53
2022-08-07T22:16:39.868Z,5.72
2022-08-07T22:18:09.307Z,6.55
2022-08-07T22:20:46.800Z,6.53
2022-08-07T22:23:21.735Z,6.03
2022-08-07T22:26:20.674Z,6.33
2022-08-07T22:29:04.303Z,5.28
2022-08-07T22:32:11.252Z,5.25
2022-08-07T22:34:54.637Z,7.13
2022-08-07T22:38:02.802Z,5.90
2022-08-07T22:40:53.295Z,5.47
2022-08-07T22:43:45.578Z,6.50
2022-08-07T22:47:02.371Z,5.05
2022-08-07T22:49:42.830Z,4.63
2022-08-07T22:52:37.659Z,6.07
2022-08-07T22:55:22.698Z,5.37
2022-08-07T22:58:11.414Z,4.90
2022-08-07T23:01:06.182Z,6.53
2022-08-07T23:03:57.303Z,4.75
2022-08-07T23:07:33.585Z,4.75
2022-08-07T23:10:38.429Z,4.53
2022-08-07T23:13:19.244Z,4.50
2022-08-07T23:16:05.363Z,5.53
2022-08-07T23:19:48.010Z,6.95
2022-08-07T23:22:37.102Z,6.55
2022-08-07T23:25:16.035Z,4.67
2022-08-07T23:28:22.175Z,5.13
2022-08-07T23:31:18.827Z,5.13
2022-08-07T23:34:39.558Z,6.63
2022-08-07T23:37:37.232Z,5.28
2022-08-07T23:40:51.758Z,4.10
2022-08-07T23:43:42.269Z,4.47
2022-08-07T23:46:39.660Z,6.22
2022-08-07T23:49:49.787Z,5.28
2022-08-07T23:53:00.300Z,5.30
2022-08-07T23:55:52.987Z,6.27
2022-08-07T23:58:26.939Z,5.65
